Latest Weather Observations for Macquarie Island*

IDT60801

Issued at 8:31 am EST Wednesday 31 August 2016 (issued every 30 minutes, with the page automatically refreshed every 10 minutes)

About weather observations | Map of weather stations | Latest weather observations for ANT | Other Formats
Station Details ID: 300004 Name: MACQUARIE ISLAND Lat: -54.50 Lon: 158.94 Height: 6.0 m
Data from the previous 72 hours. | See also: Recent months at Macquarie Island*
Date/Time
EST
Temp
°C
App
Temp
°C
Dew
Point
°C
Rel
Hum
%
Delta-T
°C
Wind Press
QNH
hPa
Press
MSL
hPa
Rain since
9am
mm
Dir  Spd
km/h
Gust
km/h
Spd
kts
Gust
kts
31/08:30am 4.5 -1.9 3.2 91 0.5 WNW 26 30 14 16 1009.2 - 0.4
31/08:00am 4.2 -3.1 2.7 90 0.6 WNW 30 35 16 19 1009.2 - 0.4
31/07:30am 4.4 -3.2 2.9 90 0.6 WNW 32 39 17 21 1009.1 - 0.4
31/07:00am 4.2 -3.4 2.7 90 0.6 W 32 37 17 20 1009.1 - 0.4
31/06:30am 4.0 -3.3 2.5 90 0.6 W 30 37 16 20 1009.2 - 0.4
31/06:00am 4.0 -3.9 2.5 90 0.6 W 33 41 18 22 1009.0 1009.3 0.4
31/05:30am 4.1 -3.5 2.6 90 0.6 W 32 39 17 21 1009.0 - 0.4
31/05:21am 4.1 -3.5 2.6 90 0.6 W 32 39 17 21 1008.7 - 0.4
31/05:00am 4.3 -4.6 2.8 90 0.6 WNW 39 50 21 27 1008.7 - 0.4
31/04:30am 4.1 -4.1 2.6 90 0.6 W 35 44 19 24 1008.2 - 0.4
31/04:00am 4.2 -4.7 2.9 91 0.5 W 39 50 21 27 1008.3 - 0.4
31/03:30am 4.3 -5.9 3.0 91 0.5 W 46 56 25 30 1008.3 - 0.4
31/03:00am 4.2 -5.7 2.9 91 0.5 W 44 54 24 29 1008.1 1008.4 0.4
31/02:30am 4.2 -5.7 2.9 91 0.5 W 44 54 24 29 1008.2 - 0.4
31/02:00am 4.2 -6.8 2.9 91 0.5 W 50 59 27 32 1008.5 - 0.4
31/01:30am 4.2 -6.0 3.0 92 0.5 W 46 57 25 31 1008.7 - 0.4
31/01:00am 4.3 -5.9 3.3 93 0.4 WNW 46 56 25 30 1008.6 - 0.2
31/12:30am 4.1 -6.6 2.8 91 0.5 WNW 48 56 26 30 1008.4 - 0.2
31/12:00am 4.1 -6.9 2.8 91 0.5 W 50 59 27 32 1008.7 1009.0 0.2
 
Date/Time
EST
Temp
°C
App
Temp
°C
Dew
Point
°C
Rel
Hum
%
Delta-T
°C
Wind Press
QNH
hPa
Press
MSL
hPa
Rain since
9am
mm
Dir  Spd
km/h
Gust
km/h
Spd
kts
Gust
kts
30/11:30pm 4.1 -6.2 2.8 91 0.5 WNW 46 54 25 29 1008.5 - 0.2
30/11:00pm 4.1 -6.6 2.6 90 0.6 WNW 48 57 26 31 1008.4 - 0.2
30/10:30pm 4.1 -6.6 2.6 90 0.6 WNW 48 56 26 30 1008.2 - 0.2
30/10:00pm 4.1 -7.0 2.5 89 0.6 W 50 61 27 33 1008.4 - 0.2
30/09:30pm 4.2 -6.5 2.7 90 0.6 W 48 57 26 31 1008.2 - 0.2
30/09:00pm 4.2 -6.9 2.6 89 0.6 W 50 59 27 32 1008.5 1008.8 0.2
30/08:30pm 4.2 -6.1 2.7 90 0.6 W 46 56 25 30 1008.6 - 0.2
30/08:00pm 4.2 -6.9 2.6 89 0.6 W 50 61 27 33 1008.8 - 0.2
30/07:30pm 4.2 -6.9 2.7 90 0.6 W 50 61 27 33 1008.5 - 0.2
30/07:00pm 4.1 -7.0 2.6 90 0.6 WNW 50 61 27 33 1008.3 - 0.2
30/06:30pm 4.2 -7.6 2.7 90 0.6 W 54 63 29 34 1008.1 - 0.2
30/06:00pm 4.3 -6.7 2.8 90 0.6 WNW 50 61 27 33 1008.2 1008.5 0.2
30/05:30pm 4.1 -7.0 2.5 89 0.6 WNW 50 63 27 34 1007.9 - 0.2
30/05:00pm 4.2 -6.9 2.6 89 0.6 WNW 50 59 27 32 1007.7 - 0.2
30/04:30pm 4.1 -7.0 2.3 88 0.7 WNW 50 61 27 33 1007.9 - 0.2
30/04:00pm 4.0 -7.9 2.0 87 0.8 WNW 54 63 29 34 1007.6 - 0.2
30/03:30pm 4.1 -7.0 2.3 88 0.7 WNW 50 63 27 34 1007.5 - 0.2
30/03:00pm 4.4 -6.7 2.6 88 0.7 WNW 50 65 27 35 1007.4 1007.7 0.2
30/02:30pm 4.4 -7.0 2.6 88 0.7 WNW 52 63 28 34 1007.4 - 0.2
30/02:00pm 4.2 -7.7 2.2 87 0.8 WNW 54 65 29 35 1007.5 - 0.2
30/01:30pm 4.6 -6.4 2.9 89 0.7 WNW 50 61 27 33 1007.3 - 0.2
30/01:00pm 4.5 -6.5 2.8 89 0.7 WNW 50 61 27 33 1007.4 - 0.2
30/12:30pm 4.8 -6.2 2.8 87 0.8 WNW 50 61 27 33 1007.3 - 0.2
30/12:00pm 4.2 -7.0 2.1 86 0.8 WNW 50 61 27 33 1007.3 1007.6 0.2
30/11:30am 4.4 -6.8 1.9 84 1.0 W 50 61 27 33 1007.6 - 0.2
30/11:00am 4.5 -6.7 1.7 82 1.1 WNW 50 61 27 33 1007.6 - 0.2
30/10:30am 4.5 -6.4 1.2 79 1.3 W 48 59 26 32 1007.6 - 0.2
30/10:00am 4.4 -6.3 2.3 86 0.8 W 48 61 26 33 1007.5 - 0.2
30/09:30am 4.9 -6.1 2.8 86 0.9 W 50 59 27 32 1007.2 - 0.2
30/09:00am 5.0 -5.8 1.7 79 1.3 W 48 59 26 32 1006.9 1007.2 3.0
30/08:30am 4.7 -6.2 1.6 80 1.2 W 48 57 26 31 1006.6 - 3.0
30/08:00am 4.8 -6.6 0.6 74 1.6 W 50 61 27 33 1006.1 - 3.0
30/07:30am 4.5 -8.8 -0.5 70 1.9 W 59 69 32 37 1005.6 - 3.0
30/07:00am 4.3 -8.1 -0.9 69 1.9 W 54 72 29 39 1005.1 - 3.0
30/06:50am 4.2 -8.2 -0.8 70 1.8 W 54 72 29 39 1005.0 - 3.0
30/06:30am 3.8 -8.4 0.3 78 1.3 W 54 69 29 37 1004.8 - 3.0
30/06:00am 3.5 -8.7 0.6 81 1.1 W 54 72 29 39 1004.2 1004.5 3.0
30/05:35am 4.0 -8.5 0.5 78 1.3 W 56 74 30 40 1003.5 - 3.0
30/05:30am 4.3 -8.8 0.5 76 1.5 W 59 74 32 40 1003.4 - 3.0
30/05:00am 4.4 -8.3 -0.8 69 1.9 W 56 85 30 46 1002.9 - 3.0
30/04:30am 4.1 -8.2 -0.1 74 1.6 W 54 76 29 41 1002.2 - 3.0
30/04:00am 3.9 -8.7 0.2 77 1.4 W 56 78 30 42 1001.5 - 3.0
30/03:37am 4.3 -8.6 -0.5 71 1.8 W 57 76 31 41 1000.9 - 3.0
30/03:30am 4.4 -7.9 -0.6 70 1.9 W 54 70 29 38 1000.9 - 3.0
30/03:00am 4.3 -8.9 -0.1 73 1.7 W 59 80 32 43 1000.2 1000.5 3.0
30/02:30am 4.3 -8.0 -0.3 72 1.7 W 54 82 29 44 999.8 - 3.0
30/02:00am 4.2 -8.4 0.0 74 1.6 W 56 83 30 45 999.6 - 2.8
30/01:30am 4.6 -8.3 -0.4 70 1.9 W 57 80 31 43 998.9 - 2.8
30/01:00am 4.4 -8.6 -1.0 68 2.0 W 57 80 31 43 998.2 - 2.8
30/12:30am 4.3 -9.7 -0.3 72 1.7 W 63 87 34 47 997.8 - 2.8
30/12:00am 4.4 -8.8 -0.2 72 1.7 W 59 89 32 48 997.2 997.5 2.8
 
Date/Time
EST
Temp
°C
App
Temp
°C
Dew
Point
°C
Rel
Hum
%
Delta-T
°C
Wind Press
QNH
hPa
Press
MSL
hPa
Rain since
9am
mm
Dir  Spd
km/h
Gust
km/h
Spd
kts
Gust
kts
29/11:30pm 4.3 -9.2 0.3 75 1.5 W 61 82 33 44 996.4 - 2.8
29/11:00pm 4.3 -8.9 -0.3 72 1.7 W 59 93 32 50 995.7 - 2.8
29/10:39pm 4.2 -9.7 0.2 75 1.5 W 63 83 34 45 995.2 - 2.8
29/10:30pm 4.3 -8.4 0.5 76 1.5 W 57 74 31 40 995.1 - 2.8
29/10:20pm 4.4 -7.0 0.6 76 1.5 W 50 74 27 40 994.8 - 2.8
29/10:19pm 4.4 -6.2 0.6 76 1.5 W 46 61 25 33 995.1 - 2.8
29/10:16pm 4.5 -10.6 0.1 73 1.7 W 69 87 37 47 994.9 - 2.8
29/10:13pm 4.2 -11.1 -0.4 72 1.7 W 70 83 38 45 994.7 - 2.8
29/10:00pm 3.9 -7.5 0.8 80 1.2 W 50 82 27 44 994.5 - 2.8
29/09:52pm 3.8 -6.2 0.8 81 1.1 W 43 82 23 44 994.2 - 2.8
29/09:49pm 3.8 -4.7 0.7 80 1.2 W 35 54 19 29 994.5 - 2.8
29/09:31pm 4.1 -9.0 0.6 78 1.3 W 59 78 32 42 993.9 - 2.8
29/09:30pm 4.1 -8.6 0.6 78 1.3 W 57 74 31 40 993.9 - 2.8
29/09:00pm 3.7 -10.6 0.2 78 1.3 W 65 93 35 50 993.2 993.5 2.8
29/08:30pm 4.3 -9.9 1.0 79 1.3 W 65 83 35 45 992.6 - 2.8
29/08:00pm 4.4 -8.6 1.3 80 1.2 W 59 80 32 43 991.7 - 2.8
29/07:30pm 4.6 -9.9 1.1 78 1.4 W 67 93 36 50 991.2 - 2.8
29/07:00pm 4.1 -11.0 1.5 83 1.0 W 70 93 38 50 990.6 - 2.8
29/06:30pm 4.4 -10.5 2.3 86 0.8 W 70 89 38 48 990.0 - 2.4
29/06:00pm 4.8 -9.0 3.1 89 0.7 W 65 87 35 47 988.5 988.8 2.2
29/05:30pm 4.7 -8.4 3.0 89 0.7 WNW 61 85 33 46 988.2 - 2.0
29/05:00pm 4.5 -8.2 2.8 89 0.7 WNW 59 83 32 45 987.4 - 2.0
29/04:30pm 4.4 -10.2 2.9 90 0.6 WNW 69 89 37 48 987.7 - 1.8
29/04:07pm 4.1 -11.2 2.5 89 0.6 WNW 72 91 39 49 987.4 - 1.6
29/04:00pm 3.9 -10.8 2.3 89 0.6 WNW 69 83 37 45 987.2 - 1.6
29/03:31pm 3.3 -11.5 1.8 90 0.6 WNW 69 87 37 47 987.9 - 1.4
29/03:30pm 3.3 -11.5 1.8 90 0.6 WNW 69 83 37 45 988.0 - 1.4
29/03:00pm 3.1 -10.6 1.6 90 0.6 WNW 63 82 34 44 988.8 989.1 1.0
29/02:30pm 2.9 -10.9 1.1 88 0.7 WNW 63 78 34 42 989.6 - 0.6
29/02:01pm 2.9 -10.5 1.0 87 0.7 WNW 61 80 33 43 990.0 - 0.4
29/02:00pm 2.8 -11.0 0.7 86 0.8 WNW 63 80 34 43 989.9 - 0.4
29/01:30pm 2.6 -10.1 0.5 86 0.8 W 57 76 31 41 990.6 - 0.2
29/01:00pm 2.1 -10.8 -0.3 84 0.9 W 57 78 31 42 990.8 - 0.0
29/12:33pm 3.0 -9.8 -1.2 74 1.5 W 56 74 30 40 991.1 - 0.0
29/12:30pm 2.8 -10.2 -1.4 74 1.5 W 57 74 31 40 991.2 - 0.0
29/12:03pm 2.4 -12.3 -2.9 68 1.8 W 65 83 35 45 991.7 - 0.0
29/12:00pm 2.3 -13.2 -3.4 66 1.9 W 69 83 37 45 991.6 991.9 0.0
29/11:30am 1.8 -12.5 -2.7 72 1.5 W 63 87 34 47 991.6 - 0.0
29/11:00am 1.4 -14.2 -4.2 66 1.9 W 69 89 37 48 991.9 - 0.0
29/10:56am 1.4 -14.2 -3.6 69 1.7 W 69 87 37 47 991.7 - 0.0
29/10:47am 1.4 -13.4 -3.8 68 1.8 W 65 82 35 44 991.8 - 0.0
29/10:35am 1.5 -17.3 -5.4 60 2.3 W 85 104 46 56 991.8 - 0.0
29/10:30am 1.5 -13.8 -4.3 65 2.0 W 67 91 36 49 991.8 - 0.0
29/10:00am 1.1 -14.8 -4.5 66 1.9 W 70 102 38 55 990.9 - 0.0
29/09:30am 0.7 -15.2 -4.9 66 1.8 W 70 96 38 52 990.5 - 0.0
29/09:00am 0.2 -16.4 -4.4 71 1.5 W 74 98 40 53 989.9 990.2 5.0
29/08:30am -0.3 -17.7 -4.5 73 1.3 W 78 104 42 56 989.9 - 5.0
29/08:28am -0.1 -17.3 -6.1 64 1.8 W 76 96 41 52 989.5 - 5.0
29/08:27am 0.2 -17.7 -6.2 62 2.0 W 80 96 43 52 989.3 - 5.0
29/08:14am 0.0 -13.4 -4.8 70 1.5 W 57 91 31 49 989.1 - 4.8
29/08:07am 0.1 -18.4 -5.7 65 1.8 W 83 115 45 62 988.9 - 4.8
29/08:00am -0.1 -14.1 -7.1 59 2.1 W 59 115 32 62 988.9 - 4.8
29/07:30am -1.1 -17.8 -5.3 73 1.3 W 74 115 40 62 988.1 - 4.8
29/07:00am -0.5 -16.1 -4.0 77 1.1 W 69 109 37 59 987.2 - 4.8
29/06:30am -2.8 -18.5 -4.4 89 0.4 W 69 106 37 57 986.5 - 4.8
29/06:19am -1.2 -17.4 -4.5 78 1.0 W 72 95 39 51 986.0 - 4.8
29/06:07am -0.9 -12.9 -4.4 77 1.1 W 50 85 27 46 986.0 - 4.8
29/06:00am -0.5 -17.7 -6.1 66 1.7 W 76 107 41 58 985.2 985.5 4.8
29/05:30am 0.1 -17.0 -5.1 68 1.7 W 76 115 41 62 984.4 - 4.8
29/05:00am -1.7 -19.4 -3.7 86 0.6 W 80 109 43 59 984.2 - 4.8
29/04:30am 0.6 -16.1 -5.4 64 1.9 W 74 109 40 59 982.6 - 4.8
29/04:15am 0.2 -16.1 -5.0 68 1.7 W 72 104 39 56 982.4 - 4.8
29/04:00am 0.0 -19.9 -5.2 68 1.6 W 91 122 49 66 982.2 - 4.8
29/03:56am 0.3 -21.2 -4.1 72 1.5 W 100 122 54 66 981.6 - 4.8
29/03:30am -1.9 -19.7 -4.6 82 0.8 W 80 113 43 61 982.1 - 4.8
29/03:00am -2.6 -20.5 -6.1 77 1.0 W 80 119 43 64 981.4 981.7 4.8
29/02:55am -1.2 -18.5 -4.0 81 0.8 W 78 119 42 64 981.0 - 4.8
29/02:30am -2.1 -18.3 -4.4 84 0.6 W 72 100 39 54 981.0 - 4.8
29/02:00am 0.0 -16.4 -6.2 63 1.9 W 72 113 39 61 980.4 - 4.8
29/01:30am 0.0 -17.0 -4.8 70 1.5 W 76 111 41 60 980.1 - 4.8
29/01:25am -0.4 -17.6 -6.4 64 1.8 W 76 111 41 60 979.6 - 4.8
29/01:00am -1.8 -17.6 -3.8 86 0.6 W 70 91 38 49 979.4 - 4.8
29/12:57am -1.9 -16.7 -3.5 89 0.4 W 65 87 35 47 979.7 - 4.8
29/12:40am 0.5 -18.4 -2.9 78 1.2 W 87 106 47 57 979.1 - 4.8
29/12:38am 0.5 -19.3 -3.9 72 1.5 W 91 106 49 57 978.8 - 4.8
29/12:30am 0.8 -15.1 -5.2 64 2.0 W 70 96 38 52 978.6 - 4.8
29/12:00am 0.3 -16.0 -5.3 66 1.8 W 72 115 39 62 978.4 978.7 4.8
 
Date/Time
EST
Temp
°C
App
Temp
°C
Dew
Point
°C
Rel
Hum
%
Delta-T
°C
Wind Press
QNH
hPa
Press
MSL
hPa
Rain since
9am
mm
Dir  Spd
km/h
Gust
km/h
Spd
kts
Gust
kts
28/11:35pm -0.1 -17.7 -3.1 80 1.0 W 80 117 43 63 978.2 - 4.8
28/11:30pm 0.8 -15.7 -3.1 75 1.4 W 74 98 40 53 977.0 - 4.8
28/11:00pm 1.3 -16.0 -3.7 69 1.7 W 78 100 42 54 976.4 - 4.8
28/10:30pm 0.8 -15.5 -1.8 83 0.9 W 74 95 40 51 975.3 - 4.6
28/10:10pm 0.5 -16.5 -1.7 85 0.8 W 78 117 42 63 975.1 - 4.6
28/10:00pm 0.7 -16.3 -1.4 86 0.8 W 78 98 42 53 974.4 - 4.4
28/09:57pm 1.3 -16.1 -1.4 82 0.9 W 80 98 43 53 974.5 - 4.4
28/09:32pm 1.9 -11.4 -0.7 83 0.9 W 59 82 32 44 973.7 - 4.4
28/09:30pm 1.8 -11.9 -0.6 84 0.9 W 61 78 33 42 973.6 - 4.4
28/09:27pm 1.4 -12.7 -0.8 85 0.8 W 63 82 34 44 974.0 - 4.4
28/09:19pm 0.9 -14.6 -1.2 86 0.7 W 70 82 38 44 974.3 - 4.4
28/09:15pm 1.0 -18.6 -2.2 79 1.2 W 91 115 49 62 974.4 - 4.2
28/09:12pm 2.8 -12.5 -1.4 74 1.5 WNW 69 100 37 54 972.8 - 4.2
28/09:03pm 2.0 -11.8 -1.8 76 1.3 WNW 61 82 33 44 973.1 - 4.2
28/09:00pm 2.0 -11.3 -0.9 81 1.1 WNW 59 74 32 40 973.3 973.6 4.2
28/08:39pm 2.9 -14.7 -0.2 80 1.1 WNW 82 113 44 61 972.6 - 4.2
28/08:30pm 3.2 -12.5 -0.6 76 1.4 WNW 72 95 39 51 972.4 - 4.2
28/08:04pm 3.4 -13.5 -0.6 75 1.5 WNW 78 115 42 62 972.3 - 4.2
28/08:00pm 3.7 -12.8 -0.7 73 1.6 WNW 76 96 41 52 971.8 - 4.2
28/07:30pm 3.7 -11.3 0.6 80 1.2 WNW 69 91 37 49 971.4 - 4.2
28/07:00pm 2.1 -13.1 0.3 88 0.7 WNW 70 98 38 53 972.0 - 4.2
28/06:58pm 3.3 -11.5 1.8 90 0.6 WNW 69 95 37 51 972.0 - 4.0
28/06:47pm 2.8 -10.9 1.5 91 0.5 WNW 63 76 34 41 971.7 - 4.0
28/06:30pm 4.0 -13.4 2.5 90 0.6 WNW 83 109 45 59 970.8 - 3.6
28/06:09pm 5.4 -10.3 4.1 91 0.6 NW 76 95 41 51 970.9 - 3.2
28/06:00pm 5.1 -12.1 3.6 90 0.6 NW 83 95 45 51 970.8 971.1 3.2
28/05:53pm 5.0 -15.8 3.7 91 0.5 NW 102 124 55 67 970.2 - 3.0
28/05:30pm 5.6 -8.9 4.4 92 0.5 NW 70 91 38 49 971.6 - 2.2
28/05:00pm 5.6 -8.4 4.2 91 0.6 NW 67 89 36 48 972.8 - 2.2
28/04:30pm 5.5 -9.5 4.0 90 0.6 NW 72 95 39 51 973.9 - 1.6
28/04:00pm 5.6 -8.5 3.8 88 0.8 NW 67 87 36 47 975.2 - 1.2
28/03:30pm 5.5 -8.6 3.8 89 0.7 NNW 67 87 36 47 976.1 - 1.0
28/03:00pm 5.3 -8.0 3.8 90 0.6 NW 63 85 34 46 976.9 977.2 1.0
28/02:33pm 5.4 -7.5 3.9 90 0.6 NW 61 83 33 45 977.9 - 0.8
28/02:30pm 5.3 -7.6 3.8 90 0.6 NW 61 78 33 42 978.0 - 0.8
28/02:00pm 5.1 -8.3 3.4 89 0.7 NW 63 82 34 44 979.0 - 0.6
28/01:30pm 5.1 -8.0 3.1 87 0.8 NW 61 80 33 43 979.8 - 0.2
28/01:00pm 5.0 -8.1 2.9 86 0.9 NW 61 80 33 43 980.5 - 0.0
28/12:32pm 4.9 -7.9 2.6 85 0.9 NW 59 80 32 43 981.2 - 0.0
28/12:30pm 4.9 -7.9 2.6 85 0.9 NNW 59 72 32 39 981.2 - 0.0
28/12:00pm 4.3 -9.8 1.8 84 1.0 NW 65 85 35 46 982.1 982.4 0.0
28/11:30am 5.0 -8.8 1.1 76 1.5 NW 63 85 34 46 982.7 - 0.0
28/11:17am 4.8 -6.8 1.8 81 1.2 NW 52 70 28 38 983.3 - 0.0
28/11:00am 4.8 -8.6 1.3 78 1.4 NW 61 76 33 41 983.5 - 0.0
28/10:30am 4.7 -9.5 1.0 77 1.4 NW 65 76 35 41 984.1 - 0.0
28/10:00am 4.1 -9.4 0.6 78 1.3 NW 61 80 33 43 984.4 - 0.0
28/09:31am 3.8 -8.9 0.5 79 1.3 NW 57 76 31 41 985.2 - 0.0
28/09:30am 3.7 -9.1 0.4 79 1.2 NW 57 70 31 38 985.2 - 0.0
28/09:25am 3.7 -8.9 1.3 84 0.9 NW 57 76 31 41 985.3 - 0.0
28/09:00am 3.9 -9.7 -0.5 73 1.7 NW 61 72 33 39 985.5 985.8 9.8

Other Formats:

Comma delimited format used in spreadsheet applications
http://www.bom.gov.au/fwo/IDT60803/IDT60803.94998.axf

JavaScript Object Notation format (JSON) in row-major order
http://www.bom.gov.au/fwo/IDT60803/IDT60803.94998.json